createdAt,value
2022-12-03T00:01:34.814Z,82.19
2022-12-03T00:06:37.658Z,81.83
2022-12-03T00:11:40.428Z,81.89
2022-12-03T00:16:43.237Z,82.04
2022-12-03T00:21:46.091Z,82.14
2022-12-03T00:26:48.857Z,82.07
2022-12-03T00:31:51.645Z,81.98
2022-12-03T00:36:54.429Z,82.07
2022-12-03T00:41:57.272Z,82.13
2022-12-03T00:47:00.188Z,82.16
2022-12-03T00:52:03.029Z,82.04
2022-12-03T00:57:05.927Z,82.20
2022-12-03T01:02:09.204Z,82.31
2022-12-03T01:07:12.126Z,82.64
2022-12-03T01:12:15.006Z,83.04
2022-12-03T01:17:17.856Z,83.23
2022-12-03T01:22:20.688Z,83.13
2022-12-03T01:27:23.655Z,83.15
2022-12-03T01:32:26.554Z,83.42
2022-12-03T01:37:29.410Z,83.59
2022-12-03T01:42:35.568Z,83.83
2022-12-03T01:47:38.548Z,83.92
2022-12-03T01:52:42.198Z,84.01
2022-12-03T01:57:51.545Z,84.19
2022-12-03T02:02:59.772Z,84.06
2022-12-03T02:08:02.704Z,84.09
2022-12-03T02:13:10.913Z,84.34
2022-12-03T02:18:13.755Z,84.55
2022-12-03T02:23:23.980Z,84.68
2022-12-03T02:28:27.090Z,84.68
2022-12-03T02:33:29.902Z,84.63
2022-12-03T02:38:34.291Z,84.53
2022-12-03T02:43:37.542Z,84.57
2022-12-03T02:48:41.909Z,84.60
2022-12-03T02:53:48.772Z,84.52
2022-12-03T02:58:54.653Z,84.60
2022-12-03T03:03:58.477Z,84.54
2022-12-03T03:09:01.262Z,84.81
2022-12-03T03:14:04.257Z,84.43
2022-12-03T03:19:07.592Z,84.37
2022-12-03T03:24:10.597Z,84.24
2022-12-03T03:29:13.865Z,84.12
2022-12-03T03:34:17.700Z,84.09
2022-12-03T03:39:20.486Z,84.09
2022-12-03T03:44:23.484Z,84.04
2022-12-03T03:49:26.881Z,84.09
2022-12-03T03:54:29.764Z,84.06
2022-12-03T03:59:32.808Z,84.17
2022-12-03T04:04:36.885Z,84.17
2022-12-03T04:09:39.796Z,84.04
2022-12-03T04:14:42.571Z,84.10
2022-12-03T04:19:45.369Z,84.02
2022-12-03T04:24:48.433Z,84.11
2022-12-03T04:29:51.280Z,84.15
2022-12-03T04:35:12.628Z,84.25
2022-12-03T04:40:33.985Z,84.21
2022-12-03T04:45:36.849Z,84.33
2022-12-03T04:50:39.753Z,84.27
2022-12-03T04:55:42.579Z,84.20
2022-12-03T05:00:45.344Z,84.34
2022-12-03T05:05:48.165Z,84.43
2022-12-03T05:10:50.919Z,84.67
2022-12-03T05:15:53.708Z,84.81
2022-12-03T05:20:56.484Z,84.66
2022-12-03T05:26:01.662Z,84.61
2022-12-03T05:31:05.210Z,84.84
2022-12-03T05:36:08.356Z,84.92
2022-12-03T05:41:29.625Z,84.69
2022-12-03T05:46:32.991Z,84.41
2022-12-03T05:51:35.887Z,84.46
2022-12-03T05:56:38.625Z,84.78
2022-12-03T06:01:41.428Z,84.78
2022-12-03T06:06:44.233Z,84.73
2022-12-03T06:11:47.083Z,84.64
2022-12-03T06:16:49.858Z,84.47
2022-12-03T06:21:56.845Z,84.44
2022-12-03T06:26:59.568Z,84.34
2022-12-03T06:32:02.795Z,84.40
2022-12-03T06:37:05.913Z,84.50
2022-12-03T06:42:08.760Z,84.55
2022-12-03T06:47:11.979Z,84.73
2022-12-03T06:52:14.854Z,84.59
2022-12-03T06:57:17.808Z,84.54
2022-12-03T07:02:20.627Z,84.67
2022-12-03T07:07:23.525Z,84.70
2022-12-03T07:12:26.320Z,84.86
2022-12-03T07:17:29.119Z,84.77
2022-12-03T07:22:31.886Z,84.81
2022-12-03T07:27:34.982Z,84.50
2022-12-03T07:32:37.855Z,84.18
2022-12-03T07:37:40.666Z,84.32
2022-12-03T07:42:43.508Z,84.47
2022-12-03T07:47:46.316Z,84.54
2022-12-03T07:52:49.284Z,84.43
2022-12-03T07:57:52.427Z,84.58
2022-12-03T08:02:55.480Z,84.63
2022-12-03T08:07:58.525Z,84.65
2022-12-03T08:13:06.746Z,84.75
2022-12-03T08:18:23.482Z,85.09
2022-12-03T08:28:29.531Z,84.68
2022-12-03T08:33:51.767Z,84.63
2022-12-03T08:49:31.967Z,84.98
2022-12-03T08:54:34.830Z,84.97
2022-12-03T08:59:41.437Z,84.80
2022-12-03T09:04:48.775Z,84.90
2022-12-03T09:09:51.613Z,85.02
2022-12-03T09:14:54.624Z,84.55
2022-12-03T09:19:58.039Z,84.69
2022-12-03T09:25:00.913Z,84.61
2022-12-03T09:30:05.581Z,84.75
2022-12-03T09:35:09.215Z,85.07
2022-12-03T09:40:13.397Z,85.34
2022-12-03T09:45:16.813Z,84.87
2022-12-03T09:50:23.879Z,84.75
2022-12-03T09:55:28.241Z,84.60
2022-12-03T10:00:31.093Z,84.90
2022-12-03T10:05:34.939Z,84.59
2022-12-03T10:10:40.779Z,84.69
2022-12-03T10:15:44.883Z,84.74
2022-12-03T10:20:48.599Z,84.62
2022-12-03T10:26:05.311Z,84.80
2022-12-03T10:31:10.662Z,84.60
2022-12-03T10:36:23.466Z,84.03
2022-12-03T10:41:28.400Z,84.25
2022-12-03T10:46:31.292Z,84.57
2022-12-03T10:51:34.369Z,84.20
2022-12-03T10:56:37.182Z,83.60
2022-12-03T11:01:40.162Z,83.91
2022-12-03T11:06:43.179Z,84.07
2022-12-03T11:11:46.506Z,84.23
2022-12-03T11:16:52.735Z,84.28
2022-12-03T11:22:09.884Z,84.41
2022-12-03T11:27:12.700Z,84.81
2022-12-03T11:32:43.865Z,84.92
2022-12-03T11:37:46.682Z,84.44
2022-12-03T11:42:49.980Z,84.58
2022-12-03T11:47:58.810Z,84.56
2022-12-03T11:53:14.526Z,84.81
2022-12-03T11:58:24.870Z,84.95
2022-12-03T12:03:49.644Z,85.15
2022-12-03T12:08:52.643Z,85.40
2022-12-03T12:13:57.044Z,85.42
2022-12-03T12:19:29.964Z,85.47
2022-12-03T12:24:46.449Z,85.16
2022-12-03T12:29:58.660Z,85.23
2022-12-03T12:35:21.219Z,85.06
2022-12-03T12:40:27.412Z,84.85
2022-12-03T12:45:36.553Z,84.94
2022-12-03T12:50:44.183Z,85.10
2022-12-03T12:55:48.485Z,85.11
2022-12-03T13:00:54.041Z,84.83
2022-12-03T13:05:57.897Z,84.69
2022-12-03T13:11:02.795Z,84.39
2022-12-03T13:16:07.206Z,83.67
2022-12-03T13:21:21.692Z,83.50
2022-12-03T13:26:43.091Z,82.66
2022-12-03T13:32:13.892Z,82.90
2022-12-03T13:37:22.351Z,83.12
2022-12-03T13:42:39.473Z,83.54
2022-12-03T13:47:46.208Z,83.48
2022-12-03T13:52:49.230Z,83.94
2022-12-03T13:57:52.566Z,84.13
2022-12-03T14:02:55.322Z,84.36
2022-12-03T14:08:01.752Z,84.73
2022-12-03T14:13:05.051Z,84.67
2022-12-03T14:18:08.206Z,84.96
2022-12-03T14:23:11.345Z,85.11
2022-12-03T14:28:14.256Z,85.33
2022-12-03T14:33:17.023Z,85.45
2022-12-03T14:38:19.997Z,85.66
2022-12-03T14:43:24.323Z,85.69
2022-12-03T14:48:28.285Z,85.44
2022-12-03T14:53:33.512Z,85.65
2022-12-03T14:58:36.512Z,85.63
2022-12-03T15:03:39.449Z,85.73
2022-12-03T15:08:42.296Z,85.61
2022-12-03T15:13:45.076Z,85.83
2022-12-03T15:18:47.885Z,86.03
2022-12-03T15:23:50.738Z,86.47
2022-12-03T15:28:53.820Z,86.44
2022-12-03T15:33:56.656Z,86.73
2022-12-03T15:38:59.570Z,86.79
2022-12-03T15:44:02.811Z,87.01
2022-12-03T15:49:05.566Z,87.00
2022-12-03T15:54:08.413Z,87.19
2022-12-03T15:59:11.223Z,87.19
2022-12-03T16:04:14.051Z,87.18
2022-12-03T16:09:18.306Z,87.11
2022-12-03T16:14:23.072Z,87.31
2022-12-03T16:19:28.016Z,87.32
2022-12-03T16:24:30.783Z,87.44
2022-12-03T16:29:33.821Z,87.69
2022-12-03T16:34:36.673Z,87.64
2022-12-03T16:39:39.477Z,87.82
2022-12-03T16:44:54.465Z,87.74
2022-12-03T16:49:57.273Z,87.85
2022-12-03T16:55:00.406Z,87.82
2022-12-03T17:00:04.955Z,88.20
2022-12-03T17:05:08.110Z,88.35
2022-12-03T17:10:11.444Z,88.26
2022-12-03T17:15:14.622Z,88.31
2022-12-03T17:20:18.103Z,88.40
2022-12-03T17:25:21.032Z,88.62
2022-12-03T17:30:24.974Z,88.76
2022-12-03T17:35:28.702Z,88.70
2022-12-03T17:40:34.299Z,88.79
2022-12-03T17:45:37.188Z,88.98
2022-12-03T17:50:40.545Z,88.97
2022-12-03T17:55:45.209Z,89.15
2022-12-03T18:00:48.664Z,89.37
2022-12-03T18:05:51.485Z,89.46
2022-12-03T18:10:55.730Z,89.57
2022-12-03T18:15:58.627Z,89.58
2022-12-03T18:21:04.002Z,89.67
2022-12-03T18:26:07.395Z,89.91
2022-12-03T18:31:21.778Z,90.08
2022-12-03T18:36:30.235Z,89.97
2022-12-03T18:41:33.470Z,89.98
2022-12-03T18:46:53.111Z,90.29
2022-12-03T18:51:59.482Z,90.30
2022-12-03T18:57:02.859Z,90.28
2022-12-03T19:02:07.121Z,90.37
2022-12-03T19:07:13.026Z,90.59
2022-12-03T19:12:16.845Z,90.62
2022-12-03T19:17:19.697Z,90.59
2022-12-03T19:22:23.262Z,90.67
2022-12-03T19:27:31.048Z,90.88
2022-12-03T19:32:35.049Z,91.03
2022-12-03T19:37:40.560Z,91.26
2022-12-03T19:42:43.838Z,91.08
2022-12-03T19:47:50.300Z,91.16
2022-12-03T19:52:53.250Z,91.50
2022-12-03T19:57:56.327Z,91.56
2022-12-03T20:03:02.488Z,91.81
2022-12-03T20:08:07.370Z,91.71
2022-12-03T20:13:10.229Z,91.63
2022-12-03T20:18:13.098Z,91.84
2022-12-03T20:23:15.886Z,91.65
2022-12-03T20:28:18.856Z,91.84
2022-12-03T20:33:21.781Z,91.98
2022-12-03T20:38:26.513Z,91.71
2022-12-03T20:43:29.380Z,91.71
2022-12-03T20:48:32.142Z,92.06
2022-12-03T20:53:36.470Z,92.09
2022-12-03T20:58:39.407Z,92.02
2022-12-03T21:03:42.232Z,92.06
2022-12-03T21:08:45.933Z,91.94
2022-12-03T21:13:48.899Z,91.98
2022-12-03T21:18:52.375Z,91.86
2022-12-03T21:23:55.188Z,91.75
2022-12-03T21:28:58.165Z,92.09
2022-12-03T21:34:01.684Z,91.88
2022-12-03T21:39:05.522Z,91.76
2022-12-03T21:44:12.904Z,91.67
2022-12-03T21:49:17.008Z,91.91
2022-12-03T21:54:20.563Z,92.04
2022-12-03T21:59:23.428Z,91.90
2022-12-03T22:04:26.388Z,92.09
2022-12-03T22:09:31.207Z,92.26
2022-12-03T22:14:34.066Z,92.54
2022-12-03T22:19:36.829Z,92.54
2022-12-03T22:24:40.057Z,92.58
2022-12-03T22:29:42.795Z,92.64
2022-12-03T22:34:45.621Z,92.86
2022-12-03T22:39:48.488Z,93.25
2022-12-03T22:44:51.256Z,92.86
2022-12-03T22:49:54.255Z,92.99
2022-12-03T22:54:57.265Z,92.75
2022-12-03T23:00:00.049Z,92.66
2022-12-03T23:05:02.891Z,92.78
2022-12-03T23:10:06.890Z,93.12
2022-12-03T23:15:09.959Z,93.04
2022-12-03T23:20:13.215Z,93.14
2022-12-03T23:25:16.644Z,93.46
2022-12-03T23:30:19.521Z,93.55
2022-12-03T23:35:22.564Z,93.73
2022-12-03T23:40:25.419Z,93.93
2022-12-03T23:45:28.215Z,93.95
2022-12-03T23:50:32.251Z,93.97
2022-12-03T23:55:39.276Z,94.17
